Blanca — 2EKJ7 — position and weather

sailwx.info

Track history (hours):
 
Tides and Currents Weather Stations Pressure Air Temp Water Temp Dewpoint Dewpoint Depression Visibility Wind Speed Wind Dir Waves Ship Positions

Blanca

Last reported at 2016-Jun-06 08:25 UTC. Time now 2016-Jun-26 04:42 UTC.
Position N 43°32' E 007°12'.
Warning: this ship's position is 19 days out of date.

Length 50 m; draft 3.1 m.

Type: Pleasure craft. MMSI: 235085866.

Date/timePositionNaut miles runAvg speedWind from/ knotsBaromVisibWave heightAir tempDewpointWater temp
2016-Jun-06 08:25N 43°32' E 007°12'5 5.0
2016-Jun-06 07:30N 43°35' E 007°08'0 0.0
2016-Jun-06 06:30N 43°35' E 007°08'0 0.0
2016-Jun-06 05:30N 43°35' E 007°08'0 0.0
2016-Jun-06 04:30N 43°35' E 007°08'0 0.0
2016-Jun-06 03:30N 43°35' E 007°08'0 0.0
2016-Jun-06 02:30N 43°35' E 007°08'0 0.0
2016-Jun-06 01:30N 43°35' E 007°08'0 0.0
2016-Jun-06 00:30N 43°35' E 007°08'0 0.0
2016-Jun-05 23:30N 43°35' E 007°08'0 0.0
2016-Jun-05 22:30N 43°35' E 007°08'0 0.0
2016-Jun-05 21:30N 43°35' E 007°08'0 0.0
2016-Jun-05 20:29N 43°35' E 007°08'0 0.0
2016-Jun-05 19:30N 43°35' E 007°08'0 0.0
2016-Jun-05 18:29N 43°35' E 007°08'0 0.0
2016-Jun-05 17:29N 43°35' E 007°08'0 0.0
2016-Jun-05 16:29N 43°35' E 007°08'0 0.0
2016-Jun-05 15:23N 43°35' E 007°08'0 0.0
2016-Jun-05 14:29N 43°35' E 007°08'0 0.0
2016-Jun-05 13:29N 43°35' E 007°08'0 0.0
2016-Jun-05 12:29N 43°35' E 007°08'0 0.0
2016-Jun-05 11:29N 43°35' E 007°08'0 0.0
2016-Jun-05 10:29N 43°35' E 007°08'0 0.0
2016-Jun-05 09:29N 43°35' E 007°08'0 0.0
2016-Jun-05 08:29N 43°35' E 007°08'0 0.0
2016-Jun-05 07:29N 43°35' E 007°08'0 0.0
2016-Jun-05 06:29N 43°35' E 007°08'0 0.0
2016-Jun-05 05:29N 43°35' E 007°08'0 0.0
2016-Jun-05 04:23N 43°35' E 007°08'0 0.0
2016-Jun-05 03:29N 43°35' E 007°08'0 0.0
2016-Jun-05 02:29N 43°35' E 007°08'0 0.0
2016-Jun-05 01:29N 43°35' E 007°08'0 0.0
2016-Jun-05 00:29N 43°35' E 007°08'0 0.0
2016-Jun-04 23:29N 43°35' E 007°08'0 0.0
2016-Jun-04 22:17N 43°35' E 007°08'0 0.0
2016-Jun-04 21:29N 43°35' E 007°08'0 0.0
2016-Jun-04 20:29N 43°35' E 007°08'0 0.0
2016-Jun-04 19:29N 43°35' E 007°08'0 0.0
2016-Jun-04 18:29N 43°35' E 007°08'0 0.0
2016-Jun-04 17:29N 43°35' E 007°08'0 0.0
2016-Jun-04 16:29N 43°35' E 007°08'1 0.6
2016-Jun-04 15:33N 43°35' E 007°09'6 5.5
2016-Jun-04 14:31N 43°32' E 007°01'0 0.0
2016-Jun-04 13:25N 43°32' E 007°01'0 0.0
2016-Jun-04 11:31N 43°32' E 007°01'0 0.0
2016-Jun-04 10:34N 43°32' E 007°01'0 0.0
2016-Jun-04 09:34N 43°32' E 007°01'4 3.6
2016-Jun-04 08:33N 43°31' E 007°06'4 4.1
2016-Jun-04 07:34N 43°35' E 007°08'0 0.0
2016-Jun-04 06:34N 43°35' E 007°08'0 0.0
2016-Jun-04 05:33N 43°35' E 007°08'0 0.0
2016-Jun-04 04:33N 43°35' E 007°08'0 0.0
2016-Jun-04 03:34N 43°35' E 007°08'0 0.0
2016-Jun-04 02:34N 43°35' E 007°08'0 0.0
2016-Jun-04 01:34N 43°35' E 007°08'0 0.0
2016-Jun-04 00:34N 43°35' E 007°08'0 0.0
2016-Jun-03 23:33N 43°35' E 007°08'0 0.0
2016-Jun-03 22:34N 43°35' E 007°08'0 0.0
2016-Jun-03 21:34N 43°35' E 007°08'0 0.0
2016-Jun-03 20:33N 43°35' E 007°08'0 0.0
2016-Jun-03 19:33N 43°35' E 007°08'0 0.0
2016-Jun-03 18:34N 43°35' E 007°08'0 0.0
2016-Jun-03 17:34N 43°35' E 007°08'0 0.0
2016-Jun-03 16:34N 43°35' E 007°08'6 6.5
2016-Jun-03 15:34N 43°30' E 007°02'1 0.3
2016-Jun-03 13:31N 43°31' E 007°02'0 0.0
2016-Jun-03 12:31N 43°31' E 007°02'0 0.0
2016-Jun-03 11:31N 43°31' E 007°02'0 0.0
2016-Jun-03 10:19N 43°31' E 007°02'0 0.0
2016-Jun-03 09:33N 43°31' E 007°02'6 5.9
2016-Jun-03 08:33N 43°35' E 007°08'0 0.0
2016-Jun-03 07:32N 43°35' E 007°08'0 0.0
2016-Jun-03 06:32N 43°35' E 007°08'0 0.0
2016-Jun-03 05:32N 43°35' E 007°08'0 0.0
2016-Jun-03 04:32N 43°35' E 007°08'0 0.0
2016-Jun-03 03:32N 43°35' E 007°08'0 0.0
2016-Jun-03 02:32N 43°35' E 007°08'0 0.0
2016-Jun-03 01:32N 43°35' E 007°08'0 0.0
2016-Jun-03 00:32N 43°35' E 007°08'0 0.0
2016-Jun-02 23:32N 43°35' E 007°08'0 0.0
2016-Jun-02 22:32N 43°35' E 007°08'0 0.0
2016-Jun-02 21:32N 43°35' E 007°08'0 0.0
2016-Jun-02 20:32N 43°35' E 007°08'0 0.0
2016-Jun-02 19:32N 43°35' E 007°08'0 0.0
2016-Jun-02 18:26N 43°35' E 007°08'0 0.0
2016-Jun-02 17:32N 43°35' E 007°08'0 0.0
2016-Jun-02 16:32N 43°35' E 007°08'0 0.0
2016-Jun-02 15:32N 43°35' E 007°08'0 0.0
2016-Jun-02 14:32N 43°35' E 007°08'0 0.0
2016-Jun-02 13:32N 43°35' E 007°08'0 0.0
2016-Jun-02 12:26N 43°35' E 007°08'0 0.0
2016-Jun-02 11:32N 43°35' E 007°08'0 0.0
2016-Jun-02 10:20N 43°35' E 007°08'0 0.0
2016-Jun-02 09:32N 43°35' E 007°08'0 0.0
2016-Jun-02 08:26N 43°35' E 007°08'0 0.0
2016-Jun-02 07:32N 43°35' E 007°08'0 0.0
2016-Jun-02 06:26N 43°35' E 007°08'0 0.0
2016-Jun-02 05:32N 43°35' E 007°08'0 0.0
2016-Jun-02 04:32N 43°35' E 007°08'0 0.0
2016-Jun-02 03:32N 43°35' E 007°08'0 0.0
2016-Jun-02 02:32N 43°35' E 007°08'0 0.0
2016-Jun-02 01:32N 43°35' E 007°08'0 0.0
2016-Jun-02 00:32N 43°35' E 007°08'0 0.0
2016-Jun-01 23:32N 43°35' E 007°08'0 0.0
2016-Jun-01 22:32N 43°35' E 007°08'0 0.0
2016-Jun-01 21:32N 43°35' E 007°08'0 0.0
2016-Jun-01 20:32N 43°35' E 007°08'0 0.0
2016-Jun-01 19:32N 43°35' E 007°08'0 0.0
2016-Jun-01 18:32N 43°35' E 007°08'0 0.0
2016-Jun-01 17:32N 43°35' E 007°08'0 0.0
2016-Jun-01 16:32N 43°35' E 007°08'0 0.0
2016-Jun-01 15:32N 43°35' E 007°08'0 0.0
2016-Jun-01 14:32N 43°35' E 007°08'0 0.0
2016-Jun-01 13:32N 43°35' E 007°08'0 0.0
2016-Jun-01 12:32N 43°35' E 007°08'0 0.0
2016-Jun-01 11:32N 43°35' E 007°08'0 0.0
2016-Jun-01 10:32N 43°35' E 007°08'0 0.0
2016-Jun-01 09:32N 43°35' E 007°08'0 0.0
2016-Jun-01 08:08N 43°35' E 007°08'0 0.0
2016-Jun-01 07:32N 43°35' E 007°08'0 0.0
2016-Jun-01 06:32N 43°35' E 007°08'0 0.0
2016-Jun-01 05:32N 43°35' E 007°08'0 0.0
2016-Jun-01 04:26N 43°35' E 007°08'0 0.0
2016-Jun-01 03:32N 43°35' E 007°08'0 0.0
2016-Jun-01 02:32N 43°35' E 007°08'0 0.0
2016-Jun-01 01:32N 43°35' E 007°08'0 0.0
2016-Jun-01 00:32N 43°35' E 007°08'0 0.0
2016-May-31 23:32N 43°35' E 007°08'0 0.0
2016-May-31 22:32N 43°35' E 007°08'0 0.0
2016-May-31 21:32N 43°35' E 007°08'0 0.0
2016-May-31 20:32N 43°35' E 007°08'0 0.0
2016-May-31 19:32N 43°35' E 007°08'0 0.0
2016-May-31 18:32N 43°35' E 007°08'0 0.0
2016-May-31 17:32N 43°35' E 007°08'0 0.0
2016-May-31 16:32N 43°35' E 007°08'0 0.0
2016-May-31 15:26N 43°35' E 007°08'0 0.0
2016-May-31 14:20N 43°35' E 007°08'0 0.0
2016-May-31 13:32N 43°35' E 007°08'0 0.0
2016-May-31 12:32N 43°35' E 007°08'0 0.0
2016-May-31 11:32N 43°35' E 007°08'0 0.0
2016-May-31 10:32N 43°35' E 007°08'0 0.0
2016-May-31 09:32N 43°35' E 007°08'0 0.0
2016-May-31 08:32N 43°35' E 007°08'0 0.0
2016-May-31 07:32N 43°35' E 007°08'0 0.0
2016-May-31 06:32N 43°35' E 007°08'0 0.0
2016-May-31 04:32N 43°35' E 007°08'0 0.0
2016-May-31 03:32N 43°35' E 007°08'0 0.0
2016-May-31 02:26N 43°35' E 007°08'0 0.0
2016-May-31 01:32N 43°35' E 007°08'0 0.0
2016-May-31 00:32N 43°35' E 007°08'0 0.0
2016-May-30 23:32N 43°35' E 007°08'0 0.0
2016-May-30 22:32N 43°35' E 007°08'0 0.0
2016-May-30 21:32N 43°35' E 007°08'0 0.0
2016-May-30 20:32N 43°35' E 007°08'0 0.0
2016-May-30 19:26N 43°35' E 007°08'0 0.0
2016-May-30 18:26N 43°35' E 007°08'0 0.0
2016-May-30 17:32N 43°35' E 007°08'0 0.0
2016-May-30 16:32N 43°35' E 007°08'0 0.0
2016-May-30 15:26N 43°35' E 007°08'0 0.0
2016-May-30 14:32N 43°35' E 007°08'0 0.0
2016-May-30 13:32N 43°35' E 007°08'0 0.0
2016-May-30 12:32N 43°35' E 007°08'0 0.0
2016-May-30 11:26N 43°35' E 007°08'0 0.0
2016-May-30 10:32N 43°35' E 007°08'0 0.0
2016-May-30 09:32N 43°35' E 007°08'0 0.0
2016-May-30 08:32N 43°35' E 007°08'0 0.0
2016-May-30 07:32N 43°35' E 007°08'0 0.0
2016-May-30 06:32N 43°35' E 007°08'0 0.0
2016-May-30 04:32N 43°35' E 007°08'0 0.0
2016-May-30 03:26N 43°35' E 007°08'0 0.0
2016-May-30 02:32N 43°35' E 007°08'0 0.0
2016-May-30 01:32N 43°35' E 007°08'0 0.0
2016-May-30 00:32N 43°35' E 007°08'0 0.0
2016-May-29 23:32N 43°35' E 007°08'0 0.0
2016-May-29 22:26N 43°35' E 007°08'0 0.0
2016-May-29 21:32N 43°35' E 007°08'0 0.0
2016-May-29 20:32N 43°35' E 007°08'0 0.0
2016-May-29 19:32N 43°35' E 007°08'0 0.0
2016-May-29 18:26N 43°35' E 007°08'0 0.0
2016-May-29 17:32N 43°35' E 007°08'0 0.0
2016-May-29 16:32N 43°35' E 007°08'0 0.0
2016-May-29 15:32N 43°35' E 007°08'0 0.0
2016-May-29 14:32N 43°35' E 007°08'0 0.0
2016-May-29 13:26N 43°35' E 007°08'0 0.0
2016-May-29 12:32N 43°35' E 007°08'0 0.0
2016-May-29 11:32N 43°35' E 007°08'0 0.0
2016-May-29 10:32N 43°35' E 007°08'0 0.0
2016-May-29 09:32N 43°35' E 007°08'0 0.0
2016-May-29 08:08N 43°35' E 007°08'0 0.0
2016-May-29 07:32N 43°35' E 007°08'0 0.0
2016-May-29 06:26N 43°35' E 007°08'0 0.0
2016-May-29 05:32N 43°35' E 007°08'0 0.0
2016-May-29 04:32N 43°35' E 007°08'0 0.0
2016-May-29 03:32N 43°35' E 007°08'0 0.0
2016-May-29 02:32N 43°35' E 007°08'0 0.0
2016-May-29 01:32N 43°35' E 007°08'0 0.0
2016-May-29 00:32N 43°35' E 007°08'0 0.0
2016-May-28 23:32N 43°35' E 007°08'0 0.0
2016-May-28 22:32N 43°35' E 007°08'0 0.0
2016-May-28 21:32N 43°35' E 007°08'0 0.0
2016-May-28 20:32N 43°35' E 007°08'0 0.0
2016-May-28 19:32N 43°35' E 007°08'0 0.0
2016-May-28 18:32N 43°35' E 007°08'0 0.0
2016-May-28 17:32N 43°35' E 007°08'0 0.0
2016-May-28 16:33N 43°35' E 007°08'6 6.0
2016-May-28 15:33N 43°31' E 007°02'0 0.0
2016-May-28 13:14N 43°31' E 007°02'0 0.0
2016-May-28 12:29N 43°31' E 007°02'0 0.0
2016-May-28 11:32N 43°31' E 007°02'0 0.0
2016-May-28 10:32N 43°31' E 007°02'0 0.0
2016-May-28 08:18N 43°31' E 007°02'6 8.4
2016-May-28 07:33N 43°35' E 007°09'1 1.0
2016-May-28 06:28N 43°35' E 007°08'0 0.0
2016-May-28 05:28N 43°35' E 007°08'0 0.0
2016-May-28 04:28N 43°35' E 007°08'0 0.0
2016-May-28 03:28N 43°35' E 007°08'0 0.0
2016-May-28 02:28N 43°35' E 007°08'0 0.0
2016-May-28 01:28N 43°35' E 007°08'0 0.0
2016-May-28 00:28N 43°35' E 007°08'0 0.0
2016-May-27 23:28N 43°35' E 007°08'0 0.0
2016-May-27 22:28N 43°35' E 007°08'0 0.0
2016-May-27 21:28N 43°35' E 007°08'0 0.0
2016-May-27 20:28N 43°35' E 007°08'0 0.0
2016-May-27 19:28N 43°35' E 007°08'0 0.0
2016-May-27 18:28N 43°35' E 007°08'0 0.0
2016-May-27 17:28N 43°35' E 007°08'0 0.0
2016-May-27 16:28N 43°35' E 007°08'0 0.0
2016-May-27 15:28N 43°35' E 007°08'0 0.0
2016-May-27 14:28N 43°35' E 007°08'0 0.0
2016-May-27 13:28N 43°35' E 007°08'0 0.0
2016-May-27 12:28N 43°35' E 007°08'0 0.0
2016-May-27 11:28N 43°35' E 007°08'0 0.0
2016-May-27 10:28N 43°35' E 007°08'0 0.0
2016-May-27 09:22N 43°35' E 007°08'0 0.0
2016-May-27 08:28N 43°35' E 007°08'  
Track history (hours):
 
Tides and Currents Weather Stations Pressure Air Temp Water Temp Dewpoint Dewpoint Depression Visibility Wind Speed Wind Dir Waves Ship Positions

Blanca

Last reported at 2016-Jun-06 08:25 UTC. Time now 2016-Jun-26 04:42 UTC.
Position N 43°32' E 007°12'.
Warning: this ship's position is 19 days out of date.

Length 50 m; draft 3.1 m.

Type: Pleasure craft. MMSI: 235085866.

Date/timePositionNaut miles runAvg speedWind from/ knotsBaromVisibWave heightAir tempDewpointWater temp
2016-Jun-06 08:25N 43°32' E 007°12'5 5.0
2016-Jun-06 07:30N 43°35' E 007°08'0 0.0
2016-Jun-06 06:30N 43°35' E 007°08'0 0.0
2016-Jun-06 05:30N 43°35' E 007°08'0 0.0
2016-Jun-06 04:30N 43°35' E 007°08'0 0.0
2016-Jun-06 03:30N 43°35' E 007°08'0 0.0
2016-Jun-06 02:30N 43°35' E 007°08'0 0.0
2016-Jun-06 01:30N 43°35' E 007°08'0 0.0
2016-Jun-06 00:30N 43°35' E 007°08'0 0.0
2016-Jun-05 23:30N 43°35' E 007°08'0 0.0
2016-Jun-05 22:30N 43°35' E 007°08'0 0.0
2016-Jun-05 21:30N 43°35' E 007°08'0 0.0
2016-Jun-05 20:29N 43°35' E 007°08'0 0.0
2016-Jun-05 19:30N 43°35' E 007°08'0 0.0
2016-Jun-05 18:29N 43°35' E 007°08'0 0.0
2016-Jun-05 17:29N 43°35' E 007°08'0 0.0
2016-Jun-05 16:29N 43°35' E 007°08'0 0.0
2016-Jun-05 15:23N 43°35' E 007°08'0 0.0
2016-Jun-05 14:29N 43°35' E 007°08'0 0.0
2016-Jun-05 13:29N 43°35' E 007°08'0 0.0
2016-Jun-05 12:29N 43°35' E 007°08'0 0.0
2016-Jun-05 11:29N 43°35' E 007°08'0 0.0
2016-Jun-05 10:29N 43°35' E 007°08'0 0.0
2016-Jun-05 09:29N 43°35' E 007°08'0 0.0
2016-Jun-05 08:29N 43°35' E 007°08'0 0.0
2016-Jun-05 07:29N 43°35' E 007°08'0 0.0
2016-Jun-05 06:29N 43°35' E 007°08'0 0.0
2016-Jun-05 05:29N 43°35' E 007°08'0 0.0
2016-Jun-05 04:23N 43°35' E 007°08'0 0.0
2016-Jun-05 03:29N 43°35' E 007°08'0 0.0
2016-Jun-05 02:29N 43°35' E 007°08'0 0.0
2016-Jun-05 01:29N 43°35' E 007°08'0 0.0
2016-Jun-05 00:29N 43°35' E 007°08'0 0.0
2016-Jun-04 23:29N 43°35' E 007°08'0 0.0
2016-Jun-04 22:17N 43°35' E 007°08'0 0.0
2016-Jun-04 21:29N 43°35' E 007°08'0 0.0
2016-Jun-04 20:29N 43°35' E 007°08'0 0.0
2016-Jun-04 19:29N 43°35' E 007°08'0 0.0
2016-Jun-04 18:29N 43°35' E 007°08'0 0.0
2016-Jun-04 17:29N 43°35' E 007°08'0 0.0
2016-Jun-04 16:29N 43°35' E 007°08'1 0.6
2016-Jun-04 15:33N 43°35' E 007°09'6 5.5
2016-Jun-04 14:31N 43°32' E 007°01'0 0.0
2016-Jun-04 13:25N 43°32' E 007°01'0 0.0
2016-Jun-04 11:31N 43°32' E 007°01'0 0.0
2016-Jun-04 10:34N 43°32' E 007°01'0 0.0
2016-Jun-04 09:34N 43°32' E 007°01'4 3.6
2016-Jun-04 08:33N 43°31' E 007°06'4 4.1
2016-Jun-04 07:34N 43°35' E 007°08'0 0.0
2016-Jun-04 06:34N 43°35' E 007°08'0 0.0
2016-Jun-04 05:33N 43°35' E 007°08'0 0.0
2016-Jun-04 04:33N 43°35' E 007°08'0 0.0
2016-Jun-04 03:34N 43°35' E 007°08'0 0.0
2016-Jun-04 02:34N 43°35' E 007°08'0 0.0
2016-Jun-04 01:34N 43°35' E 007°08'0 0.0
2016-Jun-04 00:34N 43°35' E 007°08'0 0.0
2016-Jun-03 23:33N 43°35' E 007°08'0 0.0
2016-Jun-03 22:34N 43°35' E 007°08'0 0.0
2016-Jun-03 21:34N 43°35' E 007°08'0 0.0
2016-Jun-03 20:33N 43°35' E 007°08'0 0.0
2016-Jun-03 19:33N 43°35' E 007°08'0 0.0
2016-Jun-03 18:34N 43°35' E 007°08'0 0.0
2016-Jun-03 17:34N 43°35' E 007°08'0 0.0
2016-Jun-03 16:34N 43°35' E 007°08'6 6.5
2016-Jun-03 15:34N 43°30' E 007°02'1 0.3
2016-Jun-03 13:31N 43°31' E 007°02'0 0.0
2016-Jun-03 12:31N 43°31' E 007°02'0 0.0
2016-Jun-03 11:31N 43°31' E 007°02'0 0.0
2016-Jun-03 10:19N 43°31' E 007°02'0 0.0
2016-Jun-03 09:33N 43°31' E 007°02'6 5.9
2016-Jun-03 08:33N 43°35' E 007°08'0 0.0
2016-Jun-03 07:32N 43°35' E 007°08'0 0.0
2016-Jun-03 06:32N 43°35' E 007°08'0 0.0
2016-Jun-03 05:32N 43°35' E 007°08'0 0.0
2016-Jun-03 04:32N 43°35' E 007°08'0 0.0
2016-Jun-03 03:32N 43°35' E 007°08'0 0.0
2016-Jun-03 02:32N 43°35' E 007°08'0 0.0
2016-Jun-03 01:32N 43°35' E 007°08'0 0.0
2016-Jun-03 00:32N 43°35' E 007°08'0 0.0
2016-Jun-02 23:32N 43°35' E 007°08'0 0.0
2016-Jun-02 22:32N 43°35' E 007°08'0 0.0
2016-Jun-02 21:32N 43°35' E 007°08'0 0.0
2016-Jun-02 20:32N 43°35' E 007°08'0 0.0
2016-Jun-02 19:32N 43°35' E 007°08'0 0.0
2016-Jun-02 18:26N 43°35' E 007°08'0 0.0
2016-Jun-02 17:32N 43°35' E 007°08'0 0.0
2016-Jun-02 16:32N 43°35' E 007°08'0 0.0
2016-Jun-02 15:32N 43°35' E 007°08'0 0.0
2016-Jun-02 14:32N 43°35' E 007°08'0 0.0
2016-Jun-02 13:32N 43°35' E 007°08'0 0.0
2016-Jun-02 12:26N 43°35' E 007°08'0 0.0
2016-Jun-02 11:32N 43°35' E 007°08'0 0.0
2016-Jun-02 10:20N 43°35' E 007°08'0 0.0
2016-Jun-02 09:32N 43°35' E 007°08'0 0.0
2016-Jun-02 08:26N 43°35' E 007°08'0 0.0
2016-Jun-02 07:32N 43°35' E 007°08'0 0.0
2016-Jun-02 06:26N 43°35' E 007°08'0 0.0
2016-Jun-02 05:32N 43°35' E 007°08'0 0.0
2016-Jun-02 04:32N 43°35' E 007°08'0 0.0
2016-Jun-02 03:32N 43°35' E 007°08'0 0.0
2016-Jun-02 02:32N 43°35' E 007°08'0 0.0
2016-Jun-02 01:32N 43°35' E 007°08'0 0.0
2016-Jun-02 00:32N 43°35' E 007°08'0 0.0
2016-Jun-01 23:32N 43°35' E 007°08'0 0.0
2016-Jun-01 22:32N 43°35' E 007°08'0 0.0
2016-Jun-01 21:32N 43°35' E 007°08'0 0.0
2016-Jun-01 20:32N 43°35' E 007°08'0 0.0
2016-Jun-01 19:32N 43°35' E 007°08'0 0.0
2016-Jun-01 18:32N 43°35' E 007°08'0 0.0
2016-Jun-01 17:32N 43°35' E 007°08'0 0.0
2016-Jun-01 16:32N 43°35' E 007°08'0 0.0
2016-Jun-01 15:32N 43°35' E 007°08'0 0.0
2016-Jun-01 14:32N 43°35' E 007°08'0 0.0
2016-Jun-01 13:32N 43°35' E 007°08'0 0.0
2016-Jun-01 12:32N 43°35' E 007°08'0 0.0
2016-Jun-01 11:32N 43°35' E 007°08'0 0.0
2016-Jun-01 10:32N 43°35' E 007°08'0 0.0
2016-Jun-01 09:32N 43°35' E 007°08'0 0.0
2016-Jun-01 08:08N 43°35' E 007°08'0 0.0
2016-Jun-01 07:32N 43°35' E 007°08'0 0.0
2016-Jun-01 06:32N 43°35' E 007°08'0 0.0
2016-Jun-01 05:32N 43°35' E 007°08'0 0.0
2016-Jun-01 04:26N 43°35' E 007°08'0 0.0
2016-Jun-01 03:32N 43°35' E 007°08'0 0.0
2016-Jun-01 02:32N 43°35' E 007°08'0 0.0
2016-Jun-01 01:32N 43°35' E 007°08'0 0.0
2016-Jun-01 00:32N 43°35' E 007°08'0 0.0
2016-May-31 23:32N 43°35' E 007°08'0 0.0
2016-May-31 22:32N 43°35' E 007°08'0 0.0
2016-May-31 21:32N 43°35' E 007°08'0 0.0
2016-May-31 20:32N 43°35' E 007°08'0 0.0
2016-May-31 19:32N 43°35' E 007°08'0 0.0
2016-May-31 18:32N 43°35' E 007°08'0 0.0
2016-May-31 17:32N 43°35' E 007°08'0 0.0
2016-May-31 16:32N 43°35' E 007°08'0 0.0
2016-May-31 15:26N 43°35' E 007°08'0 0.0
2016-May-31 14:20N 43°35' E 007°08'0 0.0
2016-May-31 13:32N 43°35' E 007°08'0 0.0
2016-May-31 12:32N 43°35' E 007°08'0 0.0
2016-May-31 11:32N 43°35' E 007°08'0 0.0
2016-May-31 10:32N 43°35' E 007°08'0 0.0
2016-May-31 09:32N 43°35' E 007°08'0 0.0
2016-May-31 08:32N 43°35' E 007°08'0 0.0
2016-May-31 07:32N 43°35' E 007°08'0 0.0
2016-May-31 06:32N 43°35' E 007°08'0 0.0
2016-May-31 04:32N 43°35' E 007°08'0 0.0
2016-May-31 03:32N 43°35' E 007°08'0 0.0
2016-May-31 02:26N 43°35' E 007°08'0 0.0
2016-May-31 01:32N 43°35' E 007°08'0 0.0
2016-May-31 00:32N 43°35' E 007°08'0 0.0
2016-May-30 23:32N 43°35' E 007°08'0 0.0
2016-May-30 22:32N 43°35' E 007°08'0 0.0
2016-May-30 21:32N 43°35' E 007°08'0 0.0
2016-May-30 20:32N 43°35' E 007°08'0 0.0
2016-May-30 19:26N 43°35' E 007°08'0 0.0
2016-May-30 18:26N 43°35' E 007°08'0 0.0
2016-May-30 17:32N 43°35' E 007°08'0 0.0
2016-May-30 16:32N 43°35' E 007°08'0 0.0
2016-May-30 15:26N 43°35' E 007°08'0 0.0
2016-May-30 14:32N 43°35' E 007°08'0 0.0
2016-May-30 13:32N 43°35' E 007°08'0 0.0
2016-May-30 12:32N 43°35' E 007°08'0 0.0
2016-May-30 11:26N 43°35' E 007°08'0 0.0
2016-May-30 10:32N 43°35' E 007°08'0 0.0
2016-May-30 09:32N 43°35' E 007°08'0 0.0
2016-May-30 08:32N 43°35' E 007°08'0 0.0
2016-May-30 07:32N 43°35' E 007°08'0 0.0
2016-May-30 06:32N 43°35' E 007°08'0 0.0
2016-May-30 04:32N 43°35' E 007°08'0 0.0
2016-May-30 03:26N 43°35' E 007°08'0 0.0
2016-May-30 02:32N 43°35' E 007°08'0 0.0
2016-May-30 01:32N 43°35' E 007°08'0 0.0
2016-May-30 00:32N 43°35' E 007°08'0 0.0
2016-May-29 23:32N 43°35' E 007°08'0 0.0
2016-May-29 22:26N 43°35' E 007°08'0 0.0
2016-May-29 21:32N 43°35' E 007°08'0 0.0
2016-May-29 20:32N 43°35' E 007°08'0 0.0
2016-May-29 19:32N 43°35' E 007°08'0 0.0
2016-May-29 18:26N 43°35' E 007°08'0 0.0
2016-May-29 17:32N 43°35' E 007°08'0 0.0
2016-May-29 16:32N 43°35' E 007°08'0 0.0
2016-May-29 15:32N 43°35' E 007°08'0 0.0
2016-May-29 14:32N 43°35' E 007°08'0 0.0
2016-May-29 13:26N 43°35' E 007°08'0 0.0
2016-May-29 12:32N 43°35' E 007°08'0 0.0
2016-May-29 11:32N 43°35' E 007°08'0 0.0
2016-May-29 10:32N 43°35' E 007°08'0 0.0
2016-May-29 09:32N 43°35' E 007°08'0 0.0
2016-May-29 08:08N 43°35' E 007°08'0 0.0
2016-May-29 07:32N 43°35' E 007°08'0 0.0
2016-May-29 06:26N 43°35' E 007°08'0 0.0
2016-May-29 05:32N 43°35' E 007°08'0 0.0
2016-May-29 04:32N 43°35' E 007°08'0 0.0
2016-May-29 03:32N 43°35' E 007°08'0 0.0
2016-May-29 02:32N 43°35' E 007°08'0 0.0
2016-May-29 01:32N 43°35' E 007°08'0 0.0
2016-May-29 00:32N 43°35' E 007°08'0 0.0
2016-May-28 23:32N 43°35' E 007°08'0 0.0
2016-May-28 22:32N 43°35' E 007°08'0 0.0
2016-May-28 21:32N 43°35' E 007°08'0 0.0
2016-May-28 20:32N 43°35' E 007°08'0 0.0
2016-May-28 19:32N 43°35' E 007°08'0 0.0
2016-May-28 18:32N 43°35' E 007°08'0 0.0
2016-May-28 17:32N 43°35' E 007°08'0 0.0
2016-May-28 16:33N 43°35' E 007°08'6 6.0
2016-May-28 15:33N 43°31' E 007°02'0 0.0
2016-May-28 13:14N 43°31' E 007°02'0 0.0
2016-May-28 12:29N 43°31' E 007°02'0 0.0
2016-May-28 11:32N 43°31' E 007°02'0 0.0
2016-May-28 10:32N 43°31' E 007°02'0 0.0
2016-May-28 08:18N 43°31' E 007°02'6 8.4
2016-May-28 07:33N 43°35' E 007°09'1 1.0
2016-May-28 06:28N 43°35' E 007°08'0 0.0
2016-May-28 05:28N 43°35' E 007°08'0 0.0
2016-May-28 04:28N 43°35' E 007°08'0 0.0
2016-May-28 03:28N 43°35' E 007°08'0 0.0
2016-May-28 02:28N 43°35' E 007°08'0 0.0
2016-May-28 01:28N 43°35' E 007°08'0 0.0
2016-May-28 00:28N 43°35' E 007°08'0 0.0
2016-May-27 23:28N 43°35' E 007°08'0 0.0
2016-May-27 22:28N 43°35' E 007°08'0 0.0
2016-May-27 21:28N 43°35' E 007°08'0 0.0
2016-May-27 20:28N 43°35' E 007°08'0 0.0
2016-May-27 19:28N 43°35' E 007°08'0 0.0
2016-May-27 18:28N 43°35' E 007°08'0 0.0
2016-May-27 17:28N 43°35' E 007°08'0 0.0
2016-May-27 16:28N 43°35' E 007°08'0 0.0
2016-May-27 15:28N 43°35' E 007°08'0 0.0
2016-May-27 14:28N 43°35' E 007°08'0 0.0
2016-May-27 13:28N 43°35' E 007°08'0 0.0
2016-May-27 12:28N 43°35' E 007°08'0 0.0
2016-May-27 11:28N 43°35' E 007°08'0 0.0
2016-May-27 10:28N 43°35' E 007°08'0 0.0
2016-May-27 09:22N 43°35' E 007°08'0 0.0
2016-May-27 08:28N 43°35' E 007°08'  

Dump ship's entire track history